Time;durP1;ratioP1;P1;durP2;ratioP2;P2;SDS_P1;SDS_P2;PMS_P1;PMS_P2;Temp;Humidity;BMP_temperature;BMP_pressure;BME280_temperature;BME280_humidity;BME280_pressure;Samples;Min_cycle;Max_cycle;Signal;HPM_P1;HPM_P2
2022/06/15 00:01:19;;;;;;;4.05;1.55;;;13.00;99.90;;;;;;4994567;28;20717;-80
2022/06/15 00:03:45;;;;;;;5.10;1.35;;;12.90;99.90;;;;;;4996276;28;20164;-80
2022/06/15 00:06:15;;;;;;;5.78;1.90;;;12.90;99.90;;;;;;4994713;28;20684;-81
2022/06/15 00:08:43;;;;;;;3.13;1.50;;;12.90;99.90;;;;;;4996139;28;20170;-81
2022/06/15 00:11:21;;;;;;;3.67;1.85;;;12.60;99.90;;;;;;5010799;28;20203;-81
2022/06/15 00:13:48;;;;;;;4.13;1.98;;;12.50;99.90;;;;;;5013662;28;20190;-80
2022/06/15 00:16:14;;;;;;;2.55;1.40;;;12.50;99.90;;;;;;4994432;28;20187;-79
2022/06/15 00:18:40;;;;;;;4.30;1.42;;;12.40;99.90;;;;;;4996003;28;20168;-79
2022/06/15 00:21:06;;;;;;;4.63;1.90;;;12.30;99.90;;;;;;4994433;28;20503;-79
2022/06/15 00:23:33;;;;;;;3.72;1.70;;;12.40;99.90;;;;;;4994053;28;20196;-79
2022/06/15 00:25:59;;;;;;;3.85;1.40;;;12.50;99.90;;;;;;4994368;28;20180;-80
2022/06/15 00:28:28;;;;;;;5.07;1.92;;;12.60;99.90;;;;;;4994460;28;20202;-81
2022/06/15 00:30:54;;;;;;;3.63;1.48;;;12.50;99.90;;;;;;4995494;28;20239;-80
2022/06/15 00:33:22;;;;;;;4.93;1.70;;;12.40;99.90;;;;;;4994576;28;20254;-79
2022/06/15 00:35:58;;;;;;;2.42;1.50;;;12.40;99.90;;;;;;4994140;28;20184;-80
2022/06/15 00:38:36;;;;;;;3.75;1.50;;;12.40;99.90;;;;;;4994281;28;20622;-80
2022/06/15 00:41:04;;;;;;;4.13;1.67;;;12.40;99.90;;;;;;4994196;28;20176;-80
2022/06/15 00:43:46;;;;;;;5.20;1.80;;;12.30;99.90;;;;;;4994283;28;20176;-80
2022/06/15 00:46:24;;;;;;;5.05;1.88;;;12.40;99.90;;;;;;4998866;28;20226;-80
2022/06/15 00:49:01;;;;;;;3.85;1.48;;;12.40;99.90;;;;;;5015124;28;20186;-80
2022/06/15 00:51:27;;;;;;;2.55;1.52;;;12.40;99.90;;;;;;5013674;28;20179;-80
2022/06/15 00:53:54;;;;;;;6.85;1.90;;;12.40;99.90;;;;;;5013560;28;20175;-80
2022/06/15 00:56:20;;;;;;;4.20;1.90;;;12.40;99.90;;;;;;5013187;28;20681;-80
2022/06/15 00:58:51;;;;;;;2.38;1.58;;;12.20;99.90;;;;;;5013418;28;20621;-80
2022/06/15 01:01:17;;;;;;;3.47;1.60;;;12.00;99.90;;;;;;5014794;28;20173;-79
2022/06/15 01:03:44;;;;;;;5.93;1.90;;;12.00;99.90;;;;;;5013186;28;20267;-79
2022/06/15 01:06:16;;;;;;;3.17;1.65;;;11.90;99.90;;;;;;5013181;28;20668;-80
2022/06/15 01:09:00;;;;;;;6.22;2.10;;;12.00;99.90;;;;;;5014717;28;20182;-80
2022/06/15 01:11:39;;;;;;;2.78;1.65;;;11.80;99.90;;;;;;5013177;28;20237;-80
2022/06/15 01:14:32;;;;;;;5.38;1.77;;;11.80;99.90;;;;;;5009881;28;20231;-80
2022/06/15 01:17:11;;;;;;;3.72;1.92;;;11.90;99.90;;;;;;4994855;28;20211;-80
2022/06/15 01:20:07;;;;;;;2.60;1.30;;;11.90;99.90;;;;;;4993536;28;20184;-80
2022/06/15 01:22:45;;;;;;;4.55;1.80;;;11.90;99.90;;;;;;4994409;28;20179;-79
2022/06/15 01:25:33;;;;;;;6.07;1.52;;;11.80;99.90;;;;;;4993552;28;20171;-80
2022/06/15 01:28:13;;;;;;;3.47;1.30;;;11.80;99.90;;;;;;4993908;28;20642;-80
2022/06/15 01:30:58;;;;;;;4.07;1.52;;;11.70;99.90;;;;;;4993152;28;20180;-80
2022/06/15 01:33:44;;;;;;;3.45;1.90;;;11.80;99.90;;;;;;4993370;28;20266;-79
2022/06/15 01:36:33;;;;;;;3.95;1.65;;;11.70;99.90;;;;;;4993158;28;20211;-79
2022/06/15 01:39:12;;;;;;;3.03;2.20;;;11.70;99.90;;;;;;4994643;28;20494;-80
2022/06/15 01:41:51;;;;;;;2.40;1.70;;;11.50;99.90;;;;;;4994729;28;20230;-80
2022/06/15 01:44:28;;;;;;;4.40;1.75;;;11.50;99.90;;;;;;4994023;28;20529;-80
2022/06/15 01:46:55;;;;;;;3.45;1.77;;;11.30;99.90;;;;;;4993031;28;20609;-79
2022/06/15 01:49:44;;;;;;;5.82;2.10;;;11.20;99.90;;;;;;4993637;28;20577;-79
2022/06/15 01:52:14;;;;;;;3.92;2.17;;;11.20;99.90;;;;;;4993122;28;20615;-79
2022/06/15 01:54:49;;;;;;;3.75;1.83;;;11.20;99.90;;;;;;4993714;28;20271;-79
2022/06/15 01:57:16;;;;;;;7.43;3.47;;;11.10;99.90;;;;;;4993011;28;20179;-79
2022/06/15 01:59:59;;;;;;;4.43;1.67;;;11.20;99.90;;;;;;4993893;28;20250;-79
2022/06/15 02:02:33;;;;;;;3.83;1.45;;;11.20;99.90;;;;;;4994140;28;20532;-79
2022/06/15 02:05:04;;;;;;;4.00;2.10;;;11.20;99.90;;;;;;4994309;28;20296;-79
2022/06/15 02:07:40;;;;;;;2.63;1.83;;;11.20;99.90;;;;;;4994109;28;20231;-79
2022/06/15 02:10:22;;;;;;;4.72;1.92;;;11.20;99.90;;;;;;4994170;28;20168;-79
2022/06/15 02:13:03;;;;;;;3.78;1.75;;;11.20;99.90;;;;;;4992267;28;20191;-80
2022/06/15 02:15:30;;;;;;;2.90;1.90;;;11.20;99.90;;;;;;4992276;28;20289;-80
2022/06/15 02:18:04;;;;;;;3.30;1.80;;;11.20;99.90;;;;;;4993897;28;20211;-80
2022/06/15 02:20:33;;;;;;;2.85;1.90;;;11.20;99.90;;;;;;4999120;28;20256;-79
2022/06/15 02:23:03;;;;;;;5.57;2.15;;;11.20;99.90;;;;;;5011984;28;20222;-79
2022/06/15 02:25:33;;;;;;;4.93;2.33;;;11.20;99.90;;;;;;5012021;28;20613;-79
2022/06/15 02:28:00;;;;;;;3.35;2.10;;;11.00;99.90;;;;;;5013584;28;20215;-79
2022/06/15 02:30:28;;;;;;;7.20;2.70;;;10.90;99.90;;;;;;5013210;28;20172;-79
2022/06/15 02:32:54;;;;;;;4.00;2.00;;;10.80;99.90;;;;;;5011836;28;20630;-80
2022/06/15 02:35:21;;;;;;;2.47;2.08;;;10.80;99.90;;;;;;5013201;28;20187;-79
2022/06/15 02:37:49;;;;;;;2.70;1.98;;;10.70;99.90;;;;;;5012239;28;20274;-79
2022/06/15 02:40:18;;;;;;;4.40;2.00;;;10.60;99.90;;;;;;5014460;28;20191;-79
2022/06/15 02:42:46;;;;;;;4.32;2.13;;;10.60;99.90;;;;;;5015889;28;20183;-79
2022/06/15 02:45:23;;;;;;;4.03;2.20;;;10.70;99.90;;;;;;5004767;28;20184;-79
2022/06/15 02:47:49;;;;;;;3.30;2.20;;;10.80;99.90;;;;;;4996420;28;20223;-79
2022/06/15 02:50:20;;;;;;;5.05;2.30;;;10.80;99.90;;;;;;4997516;28;20175;-81
2022/06/15 02:52:54;;;;;;;3.63;2.00;;;10.80;99.90;;;;;;4998989;28;20168;-80
2022/06/15 02:55:21;;;;;;;2.90;1.95;;;10.90;99.90;;;;;;5015480;28;20183;-79
2022/06/15 02:57:51;;;;;;;5.35;2.05;;;10.90;99.90;;;;;;5015724;28;20270;-79
2022/06/15 03:00:20;;;;;;;3.03;1.90;;;10.90;99.90;;;;;;5015357;28;20175;-79
2022/06/15 03:02:46;;;;;;;5.43;2.00;;;11.00;99.90;;;;;;5016965;28;20186;-79
2022/06/15 03:05:12;;;;;;;4.43;2.33;;;11.00;99.90;;;;;;5016750;28;20183;-80
2022/06/15 03:07:37;;;;;;;3.72;2.17;;;11.00;99.90;;;;;;5016755;28;20207;-79
2022/06/15 03:10:04;;;;;;;4.22;2.10;;;10.90;99.90;;;;;;5016757;28;20255;-79
2022/06/15 03:12:29;;;;;;;7.28;2.40;;;10.90;99.90;;;;;;5015629;28;20199;-79
2022/06/15 03:14:55;;;;;;;4.45;2.20;;;10.70;99.90;;;;;;5005342;28;20236;-79
2022/06/15 03:17:21;;;;;;;5.38;2.50;;;10.60;99.90;;;;;;4996087;28;20188;-79
2022/06/15 03:19:47;;;;;;;4.03;2.15;;;10.60;99.90;;;;;;4997070;28;20174;-78
2022/06/15 03:22:12;;;;;;;3.55;2.40;;;10.60;99.90;;;;;;4996996;28;20179;-79
2022/06/15 03:24:38;;;;;;;4.78;2.40;;;10.50;99.90;;;;;;4996282;28;20621;-79
2022/06/15 03:27:04;;;;;;;3.78;2.30;;;10.60;99.90;;;;;;4996871;28;20781;-79
2022/06/15 03:29:31;;;;;;;3.80;2.45;;;10.60;99.90;;;;;;4996661;28;20172;-78
2022/06/15 03:31:57;;;;;;;5.85;2.58;;;10.60;99.90;;;;;;4995689;28;20527;-79
2022/06/15 03:34:23;;;;;;;4.67;2.17;;;10.60;99.90;;;;;;4995552;28;20184;-79
2022/06/15 03:36:48;;;;;;;5.93;2.45;;;10.60;99.90;;;;;;4996622;28;20635;-79
2022/06/15 03:39:15;;;;;;;3.87;2.47;;;10.60;99.90;;;;;;4995239;28;20201;-79
2022/06/15 03:41:41;;;;;;;4.60;2.40;;;10.60;99.90;;;;;;4996669;28;20164;-79
2022/06/15 03:44:07;;;;;;;4.75;2.30;;;10.70;99.90;;;;;;4995144;28;20222;-79
2022/06/15 03:46:32;;;;;;;5.67;2.43;;;10.60;99.90;;;;;;4996206;28;20231;-79
2022/06/15 03:48:58;;;;;;;4.50;2.50;;;10.60;99.90;;;;;;4996561;28;20176;-79
2022/06/15 03:51:23;;;;;;;3.92;2.30;;;10.60;99.90;;;;;;4995729;28;20521;-79
2022/06/15 03:53:49;;;;;;;9.00;2.97;;;10.60;99.90;;;;;;4994463;28;20233;-79
2022/06/15 03:56:15;;;;;;;5.00;2.50;;;10.60;99.90;;;;;;4994675;28;20196;-80
2022/06/15 03:58:40;;;;;;;5.07;2.50;;;10.60;99.90;;;;;;4995936;28;20204;-80
2022/06/15 04:01:06;;;;;;;11.27;2.30;;;10.70;99.90;;;;;;4995860;28;20173;-80
2022/06/15 04:03:32;;;;;;;8.47;2.83;;;10.70;99.90;;;;;;4995497;28;20184;-80
2022/06/15 04:06:00;;;;;;;4.73;2.50;;;10.80;99.90;;;;;;4996086;28;20263;-79
2022/06/15 04:08:42;;;;;;;7.28;2.60;;;10.80;99.90;;;;;;4996057;28;20180;-79
2022/06/15 04:13:57;;;;;;;5.57;2.55;;;10.90;99.90;;;;;;4995828;28;20239;-81
2022/06/15 04:16:23;;;;;;;5.07;2.38;;;11.00;99.90;;;;;;4994322;28;20192;-80
2022/06/15 04:18:48;;;;;;;9.10;2.75;;;11.10;99.90;;;;;;4996219;28;20283;-80
2022/06/15 04:21:14;;;;;;;3.95;2.50;;;11.10;99.90;;;;;;4994725;28;20615;-80
2022/06/15 04:23:40;;;;;;;5.70;2.50;;;11.10;99.90;;;;;;4994158;28;20184;-80
2022/06/15 04:26:05;;;;;;;5.03;2.78;;;11.20;99.90;;;;;;4995610;28;20181;-79
2022/06/15 04:28:33;;;;;;;3.88;2.72;;;11.30;99.90;;;;;;4994465;28;20183;-80
2022/06/15 04:30:59;;;;;;;5.38;2.20;;;11.30;99.90;;;;;;4994314;28;20682;-79
2022/06/15 04:33:27;;;;;;;5.57;2.47;;;11.40;99.90;;;;;;4995076;28;20710;-79
2022/06/15 04:35:53;;;;;;;7.07;2.70;;;11.40;99.90;;;;;;4994441;28;20638;-80
2022/06/15 04:38:19;;;;;;;6.28;3.08;;;11.60;99.90;;;;;;4995724;28;20176;-79
2022/06/15 04:40:44;;;;;;;7.50;2.60;;;11.60;99.90;;;;;;4995610;28;20184;-80
2022/06/15 04:43:10;;;;;;;7.97;2.60;;;11.80;99.90;;;;;;4995568;28;20223;-80
2022/06/15 04:45:36;;;;;;;9.13;2.65;;;11.80;99.90;;;;;;4994911;28;20226;-79
2022/06/15 04:48:03;;;;;;;5.60;2.60;;;12.00;99.90;;;;;;4993678;28;20215;-80
2022/06/15 04:50:29;;;;;;;5.30;2.28;;;12.10;99.90;;;;;;4995174;28;20266;-80
2022/06/15 04:52:55;;;;;;;4.75;2.20;;;12.20;99.90;;;;;;4994903;28;20195;-80
2022/06/15 04:55:23;;;;;;;5.50;2.50;;;12.30;99.90;;;;;;4995127;28;20599;-81
2022/06/15 04:57:54;;;;;;;6.88;2.65;;;12.40;99.90;;;;;;4995419;28;20244;-79
2022/06/15 05:00:21;;;;;;;4.35;2.42;;;12.50;99.90;;;;;;4994728;28;20266;-79
2022/06/15 05:02:47;;;;;;;8.68;2.55;;;12.60;99.90;;;;;;4993781;28;20175;-80
2022/06/15 05:05:13;;;;;;;4.82;2.13;;;12.70;99.90;;;;;;4994872;28;20258;-80
2022/06/15 05:07:40;;;;;;;5.15;2.30;;;12.70;99.90;;;;;;4995255;28;20642;-80
2022/06/15 05:10:12;;;;;;;3.92;2.40;;;12.70;99.90;;;;;;4993545;28;20180;-80
2022/06/15 05:12:37;;;;;;;5.10;2.50;;;12.70;99.90;;;;;;4994909;28;20661;-79
2022/06/15 05:15:03;;;;;;;3.95;2.10;;;12.80;99.90;;;;;;4994131;28;20318;-79
2022/06/15 05:17:29;;;;;;;8.70;2.17;;;12.80;99.90;;;;;;4993260;28;20183;-80
2022/06/15 05:19:54;;;;;;;5.53;2.00;;;12.80;99.90;;;;;;5005763;28;20183;-80
2022/06/15 05:22:20;;;;;;;5.43;2.60;;;12.90;99.90;;;;;;4992945;28;20270;-80
2022/06/15 05:24:46;;;;;;;3.88;2.15;;;13.00;99.90;;;;;;4993216;28;20239;-81
2022/06/15 05:27:12;;;;;;;3.13;1.90;;;13.10;99.90;;;;;;4994204;28;20258;-81
2022/06/15 05:29:38;;;;;;;8.27;3.20;;;13.10;99.90;;;;;;4990210;28;20188;-79
2022/06/15 05:32:05;;;;;;;6.50;2.50;;;13.20;99.90;;;;;;4988804;28;20635;-80
2022/06/15 05:34:31;;;;;;;10.02;2.10;;;13.30;99.90;;;;;;4992305;28;20171;-80
2022/06/15 05:36:57;;;;;;;7.95;2.42;;;13.40;99.90;;;;;;4991871;28;20191;-80
2022/06/15 05:39:23;;;;;;;2.95;1.95;;;13.40;99.90;;;;;;4985439;28;20247;-80
2022/06/15 05:41:51;;;;;;;9.18;2.17;;;13.50;99.90;;;;;;4988416;28;20215;-79
2022/06/15 05:44:27;;;;;;;5.88;2.17;;;13.50;99.90;;;;;;5002086;28;20179;-80
2022/06/15 05:47:00;;;;;;;5.10;2.20;;;13.60;99.90;;;;;;4988585;28;20203;-80
2022/06/15 05:49:27;;;;;;;12.25;2.20;;;13.70;99.90;;;;;;4992900;28;20526;-80
2022/06/15 05:51:52;;;;;;;4.32;2.05;;;13.90;99.90;;;;;;4994072;28;20188;-80
2022/06/15 05:54:18;;;;;;;8.73;2.35;;;14.00;99.90;;;;;;4994305;28;20671;-81
2022/06/15 05:56:44;;;;;;;4.25;1.92;;;14.10;99.90;;;;;;4985879;28;20226;-80
2022/06/15 05:59:10;;;;;;;5.78;2.00;;;14.20;99.90;;;;;;4973263;28;20216;-80
2022/06/15 06:01:36;;;;;;;6.55;2.15;;;14.30;99.90;;;;;;4975810;28;20235;-80
2022/06/15 06:04:03;;;;;;;4.75;2.20;;;14.40;99.90;;;;;;5012611;28;20606;-80
2022/06/15 06:06:29;;;;;;;7.32;2.67;;;14.50;99.90;;;;;;5013473;28;20203;-80
2022/06/15 06:08:56;;;;;;;8.32;2.40;;;14.60;99.90;;;;;;5001379;28;20241;-80
2022/06/15 06:11:22;;;;;;;8.05;2.20;;;14.70;99.90;;;;;;4992429;28;20188;-80
2022/06/15 06:13:48;;;;;;;10.10;2.10;;;14.80;99.90;;;;;;4993780;28;20673;-80
2022/06/15 06:16:14;;;;;;;5.07;1.77;;;14.80;99.90;;;;;;4996422;28;20194;-80
2022/06/15 06:18:41;;;;;;;3.65;1.65;;;15.00;99.90;;;;;;4992279;28;20235;-80
2022/06/15 06:21:07;;;;;;;5.85;1.90;;;15.10;99.90;;;;;;4997674;28;20175;-80
2022/06/15 06:23:33;;;;;;;5.35;1.70;;;15.10;99.90;;;;;;4993235;28;20590;-79
2022/06/15 06:25:59;;;;;;;6.65;1.70;;;15.30;99.90;;;;;;4996262;28;20210;-79
2022/06/15 06:28:41;;;;;;;4.57;1.45;;;15.40;99.90;;;;;;4997561;28;20212;-79
2022/06/15 06:31:09;;;;;;;8.23;1.73;;;15.40;99.90;;;;;;4987637;28;20188;-79
2022/06/15 06:33:37;;;;;;;6.47;1.60;;;15.50;99.90;;;;;;4992469;28;20515;-80
2022/06/15 06:36:12;;;;;;;5.95;1.58;;;15.60;99.90;;;;;;4996280;28;20184;-81
2022/06/15 06:38:38;;;;;;;4.45;1.65;;;15.70;99.90;;;;;;4997548;28;20207;-80
2022/06/15 06:41:04;;;;;;;5.63;1.83;;;15.80;99.90;;;;;;4997661;28;20211;-81
2022/06/15 06:43:30;;;;;;;5.68;1.90;;;15.90;99.90;;;;;;4997433;28;20253;-81
2022/06/15 06:45:56;;;;;;;4.00;1.58;;;16.00;99.90;;;;;;4996311;28;20176;-80
2022/06/15 06:48:22;;;;;;;5.13;1.70;;;16.10;99.90;;;;;;4997574;28;20227;-80
2022/06/15 06:50:47;;;;;;;5.45;1.70;;;16.30;99.90;;;;;;4997713;28;20194;-80
2022/06/15 06:53:14;;;;;;;4.57;1.30;;;16.40;99.90;;;;;;4997740;28;20195;-81
2022/06/15 06:55:40;;;;;;;6.10;1.70;;;16.50;99.60;;;;;;4996037;28;20187;-80
2022/06/15 06:58:06;;;;;;;5.20;1.80;;;16.70;99.90;;;;;;4997542;28;20172;-81
2022/06/15 07:00:33;;;;;;;7.80;1.77;;;16.80;99.80;;;;;;4996000;28;20176;-80
2022/06/15 07:03:01;;;;;;;6.28;1.75;;;16.90;99.10;;;;;;4996305;28;20280;-81
2022/06/15 07:05:28;;;;;;;3.50;1.58;;;17.10;99.60;;;;;;4997381;28;20192;-80
2022/06/15 07:07:54;;;;;;;6.07;1.67;;;17.40;99.30;;;;;;4997212;28;20686;-79
2022/06/15 07:10:20;;;;;;;4.75;1.75;;;17.50;97.50;;;;;;4996260;28;20215;-81
2022/06/15 07:12:45;;;;;;;10.48;1.90;;;17.60;98.30;;;;;;4997418;28;20219;-81
2022/06/15 07:15:13;;;;;;;4.03;1.90;;;17.80;98.80;;;;;;4996568;28;20227;-80
2022/06/15 07:17:40;;;;;;;4.05;1.70;;;18.00;98.30;;;;;;4997437;28;20180;-80
2022/06/15 07:20:11;;;;;;;7.57;1.90;;;18.10;97.30;;;;;;4995603;28;20180;-81
2022/06/15 07:22:38;;;;;;;4.35;1.73;;;18.20;97.50;;;;;;4995838;28;20194;-80
2022/06/15 07:25:05;;;;;;;2.50;1.23;;;18.40;97.40;;;;;;4995411;28;20189;-81
2022/06/15 07:27:37;;;;;;;7.68;1.70;;;18.50;97.60;;;;;;4995782;28;20207;-81
2022/06/15 07:30:05;;;;;;;4.65;1.50;;;18.50;96.80;;;;;;4980660;28;20176;-81
2022/06/15 07:32:31;;;;;;;8.02;1.52;;;18.70;96.10;;;;;;4978303;28;20215;-81
2022/06/15 07:34:57;;;;;;;5.05;1.42;;;18.80;96.40;;;;;;4983566;28;20211;-81
2022/06/15 07:37:22;;;;;;;9.90;1.48;;;19.00;96.70;;;;;;4982046;28;20215;-82
2022/06/15 07:39:48;;;;;;;5.40;1.70;;;19.20;96.00;;;;;;4983012;28;20232;-81
2022/06/15 07:42:13;;;;;;;17.02;2.15;;;19.40;94.90;;;;;;4996687;28;20168;-81
2022/06/15 07:44:40;;;;;;;8.55;1.75;;;19.50;95.70;;;;;;4996596;28;20258;-82
2022/06/15 07:49:55;;;;;;;5.32;1.75;;;19.70;94.80;;;;;;4996905;28;20673;-80
2022/06/15 07:52:38;;;;;;;5.65;1.77;;;19.90;94.30;;;;;;4996695;28;20173;-81
2022/06/15 07:55:07;;;;;;;5.88;1.33;;;20.10;94.20;;;;;;4995184;28;20230;-81
2022/06/15 07:57:33;;;;;;;5.15;1.30;;;20.10;93.70;;;;;;4994813;28;20261;-82
2022/06/15 07:59:58;;;;;;;4.15;1.20;;;20.10;93.80;;;;;;4995231;28;20268;-81
2022/06/15 08:02:24;;;;;;;4.75;1.40;;;20.30;93.40;;;;;;4994875;28;20250;-82
2022/06/15 08:04:49;;;;;;;3.53;1.63;;;20.30;93.20;;;;;;4986332;28;20649;-81
2022/06/15 08:07:16;;;;;;;4.60;1.25;;;20.50;92.40;;;;;;4996122;28;20212;-82
2022/06/15 08:09:42;;;;;;;4.30;1.70;;;20.60;92.50;;;;;;4996214;28;20254;-81
2022/06/15 08:12:14;;;;;;;3.95;1.30;;;20.70;92.00;;;;;;4982225;28;20279;-81
2022/06/15 08:14:47;;;;;;;4.68;1.80;;;20.80;93.40;;;;;;4975253;28;20231;-82
2022/06/15 08:17:38;;;;;;;4.82;1.50;;;21.00;92.60;;;;;;4976180;28;20646;-81
2022/06/15 08:20:14;;;;;;;3.22;1.40;;;21.20;92.60;;;;;;4970401;28;20196;-82
2022/06/15 08:22:44;;;;;;;5.57;1.35;;;21.30;92.20;;;;;;4975193;28;20555;-81
2022/06/15 08:25:13;;;;;;;4.20;1.20;;;21.30;91.80;;;;;;4974982;28;20633;-82
2022/06/15 08:27:39;;;;;;;5.25;1.27;;;21.30;91.40;;;;;;4975077;28;20220;-82
2022/06/15 08:30:08;;;;;;;6.78;1.65;;;21.40;90.80;;;;;;4975121;28;20185;-82
2022/06/15 08:32:34;;;;;;;7.20;1.35;;;21.40;91.40;;;;;;4974477;28;20188;-83
2022/06/15 08:35:00;;;;;;;2.10;1.15;;;21.60;91.70;;;;;;4983446;28;20225;-82
2022/06/15 08:37:28;;;;;;;2.92;0.90;;;21.70;91.00;;;;;;4994115;28;20241;-83
2022/06/15 08:39:54;;;;;;;4.47;1.08;;;21.90;90.90;;;;;;4993968;28;20211;-82
2022/06/15 08:42:57;;;;;;;2.35;1.20;;;22.00;90.30;;;;;;4993907;28;20176;-83
2022/06/15 08:45:34;;;;;;;5.03;1.00;;;22.10;89.40;;;;;;4934120;29;20178;-82
2022/06/15 08:48:18;;;;;;;2.90;1.20;;;22.20;89.90;;;;;;4983873;28;20696;-83
2022/06/15 08:50:57;;;;;;;2.80;1.05;;;22.30;89.10;;;;;;4995209;28;20631;-82
2022/06/15 08:53:40;;;;;;;4.88;1.42;;;22.40;86.50;;;;;;4993920;28;20566;-83
2022/06/15 08:56:15;;;;;;;6.57;1.23;;;22.50;87.40;;;;;;4994125;28;20175;-83
2022/06/15 08:59:09;;;;;;;3.85;1.17;;;22.60;89.60;;;;;;4994218;28;20175;-82
2022/06/15 09:01:50;;;;;;;4.30;1.40;;;22.60;88.80;;;;;;4981625;28;20272;-82
2022/06/15 09:04:36;;;;;;;4.45;1.25;;;22.70;88.20;;;;;;4995208;28;20269;-82
2022/06/15 09:07:37;;;;;;;6.30;1.58;;;22.80;86.20;;;;;;4995015;28;20200;-82
2022/06/15 09:10:42;;;;;;;7.82;1.20;;;22.90;85.20;;;;;;4990729;28;20194;-82
2022/06/15 09:13:25;;;;;;;4.60;1.05;;;22.80;84.50;;;;;;5003070;28;20191;-82
2022/06/15 09:15:54;;;;;;;6.80;1.30;;;23.00;85.00;;;;;;4993093;28;20231;-82
2022/06/15 09:18:29;;;;;;;4.97;1.20;;;23.10;87.80;;;;;;4994777;28;20179;-83
2022/06/15 09:21:02;;;;;;;7.70;1.27;;;23.10;87.00;;;;;;4991747;28;20179;-80
2022/06/15 09:24:12;;;;;;;4.40;1.30;;;23.20;85.50;;;;;;4992564;28;20184;-82
2022/06/15 09:26:42;;;;;;;3.38;1.10;;;23.40;85.90;;;;;;4989613;28;20207;-81
2022/06/15 09:29:15;;;;;;;3.22;1.08;;;23.50;83.50;;;;;;4973829;28;20292;-82
2022/06/15 09:31:55;;;;;;;4.20;0.95;;;23.40;85.50;;;;;;4973826;28;20184;-81
2022/06/15 09:34:40;;;;;;;3.42;0.88;;;23.50;85.20;;;;;;4976920;28;20284;-83
2022/06/15 09:37:14;;;;;;;2.05;1.05;;;23.60;83.30;;;;;;4998800;28;20192;-82
2022/06/15 09:39:40;;;;;;;4.55;1.20;;;23.60;82.80;;;;;;4973186;28;20492;-82
2022/06/15 09:42:21;;;;;;;3.38;1.10;;;23.70;81.50;;;;;;4974726;28;20619;-82
2022/06/15 09:45:16;;;;;;;2.17;0.90;;;23.70;81.70;;;;;;4973818;28;20172;-81
2022/06/15 09:48:06;;;;;;;2.78;1.10;;;23.90;81.00;;;;;;4973319;28;20279;-81
2022/06/15 09:50:48;;;;;;;4.13;1.27;;;23.90;81.00;;;;;;4999537;28;20172;-82
2022/06/15 09:53:42;;;;;;;2.38;0.98;;;24.00;84.80;;;;;;5003943;28;20611;-82
2022/06/15 09:56:15;;;;;;;2.55;1.27;;;24.00;81.10;;;;;;4963514;28;20242;-82
2022/06/15 09:58:46;;;;;;;8.27;1.00;;;24.00;82.30;;;;;;4992682;28;20179;-82
2022/06/15 10:01:13;;;;;;;6.95;1.30;;;24.20;83.20;;;;;;4983339;28;20164;-83
2022/06/15 10:03:44;;;;;;;2.40;0.88;;;24.30;81.70;;;;;;4992755;28;20184;-83
2022/06/15 10:06:25;;;;;;;3.03;1.00;;;24.40;80.30;;;;;;4994058;28;20180;-82
2022/06/15 10:08:52;;;;;;;3.60;1.10;;;24.50;80.70;;;;;;5000581;28;20598;-81
2022/06/15 10:11:30;;;;;;;4.40;1.05;;;24.40;80.40;;;;;;5009092;28;20214;-81
2022/06/15 10:13:56;;;;;;;3.38;1.02;;;24.30;79.10;;;;;;5013786;28;20678;-81
2022/06/15 10:16:31;;;;;;;3.15;1.27;;;24.10;78.90;;;;;;5012202;28;20262;-80
2022/06/15 10:18:58;;;;;;;4.13;1.85;;;24.10;82.40;;;;;;4983209;28;20188;-81
2022/06/15 10:21:30;;;;;;;5.03;1.33;;;24.40;80.80;;;;;;4989206;28;20244;-81
2022/06/15 10:24:17;;;;;;;4.05;1.30;;;24.40;79.10;;;;;;4993935;28;20206;-81
2022/06/15 10:26:53;;;;;;;6.40;1.40;;;24.50;82.30;;;;;;4976366;28;20724;-81
2022/06/15 10:29:29;;;;;;;6.53;1.38;;;24.70;81.90;;;;;;4974515;28;20184;-81
2022/06/15 10:31:57;;;;;;;7.13;1.23;;;24.80;80.70;;;;;;4972259;28;20296;-81
2022/06/15 10:34:29;;;;;;;1.42;0.90;;;25.00;81.30;;;;;;4983920;28;20180;-81
2022/06/15 10:37:06;;;;;;;4.40;1.15;;;24.80;77.50;;;;;;4992631;28;20179;-81
2022/06/15 10:39:37;;;;;;;6.30;0.90;;;24.90;77.30;;;;;;4992333;28;20179;-81
2022/06/15 10:42:09;;;;;;;4.88;1.08;;;25.00;80.80;;;;;;4993658;28;20161;-81
2022/06/15 10:44:40;;;;;;;3.22;1.20;;;24.90;76.80;;;;;;4993634;28;20179;-81
2022/06/15 10:47:06;;;;;;;3.33;1.15;;;25.00;78.40;;;;;;4992107;28;20223;-80
2022/06/15 10:49:41;;;;;;;3.28;1.30;;;25.00;78.80;;;;;;4993834;28;20179;-79
2022/06/15 10:52:29;;;;;;;6.53;1.15;;;25.20;81.40;;;;;;5022348;28;20496;-82
2022/06/15 11:03:41;;;;;;;3.67;1.45;;;25.20;76.90;;;;;;5003455;28;20206;-81
2022/06/15 11:06:06;;;;;;;3.03;0.95;;;25.30;78.50;;;;;;4996066;28;20616;-81
2022/06/15 11:08:34;;;;;;;4.20;1.02;;;25.40;80.40;;;;;;4993657;28;20218;-81
2022/06/15 11:11:24;;;;;;;3.17;1.42;;;25.60;80.30;;;;;;5008921;28;20199;-81
2022/06/15 11:13:57;;;;;;;2.13;0.80;;;25.70;76.70;;;;;;5014948;28;20206;-81
2022/06/15 11:19:22;;;;;;;5.38;1.77;;;26.00;76.70;;;;;;4989284;28;20521;-81
2022/06/15 11:22:10;;;;;;;2.75;0.90;;;26.10;76.30;;;;;;4989411;28;20199;-81
2022/06/15 11:24:44;;;;;;;3.15;1.20;;;26.20;76.30;;;;;;4994242;28;20173;-81
2022/06/15 11:27:25;;;;;;;3.42;1.25;;;26.30;74.50;;;;;;4976059;28;20212;-80
2022/06/15 11:29:54;;;;;;;4.07;1.05;;;26.10;75.50;;;;;;4998067;28;20179;-81
2022/06/15 11:32:23;;;;;;;3.00;1.10;;;26.00;74.10;;;;;;4977136;28;20180;-81
2022/06/15 11:35:20;;;;;;;3.08;0.95;;;26.10;74.40;;;;;;4978095;28;20264;-81
2022/06/15 11:37:57;;;;;;;4.10;1.23;;;26.20;77.00;;;;;;4983854;28;20171;-80
2022/06/15 11:40:35;;;;;;;3.95;1.20;;;26.30;74.30;;;;;;4996408;28;20175;-81
2022/06/15 11:43:02;;;;;;;2.78;1.20;;;26.40;75.80;;;;;;5010004;28;20618;-80
2022/06/15 11:45:48;;;;;;;2.10;1.02;;;26.40;73.70;;;;;;4996108;28;20182;-81
2022/06/15 11:48:23;;;;;;;6.55;1.30;;;26.40;75.50;;;;;;4991856;28;20259;-82
2022/06/15 11:50:56;;;;;;;3.25;1.02;;;26.10;73.00;;;;;;5002664;28;20172;-81
2022/06/15 11:54:02;;;;;;;3.85;1.05;;;26.20;73.20;;;;;;4992477;28;20184;-81
2022/06/15 11:56:36;;;;;;;4.18;1.20;;;26.30;74.10;;;;;;4966018;28;20214;-81
2022/06/15 11:59:30;;;;;;;2.58;1.10;;;26.40;74.00;;;;;;4994622;28;20509;-81
2022/06/15 12:02:14;;;;;;;3.40;0.90;;;26.60;74.10;;;;;;5000327;28;20215;-81
2022/06/15 12:05:00;;;;;;;2.05;0.73;;;26.60;74.60;;;;;;5005877;28;20226;-80
2022/06/15 12:07:37;;;;;;;2.20;0.93;;;26.80;75.00;;;;;;5005418;28;20665;-81
2022/06/15 12:10:18;;;;;;;2.05;0.90;;;26.80;71.20;;;;;;4992610;28;20670;-81
2022/06/15 12:12:49;;;;;;;7.28;1.10;;;26.70;73.90;;;;;;4986591;28;20504;-80
2022/06/15 12:15:37;;;;;;;4.03;1.08;;;26.70;73.50;;;;;;4991171;28;20234;-81
2022/06/15 12:18:18;;;;;;;2.53;1.00;;;26.50;71.20;;;;;;4975181;28;20626;-80
2022/06/15 12:21:25;;;;;;;2.53;1.00;;;26.70;76.00;;;;;;4975290;28;20259;-82
2022/06/15 12:24:06;;;;;;;4.00;1.40;;;26.70;74.20;;;;;;4995167;28;20187;-81
2022/06/15 12:26:52;;;;;;;2.83;1.00;;;26.80;76.20;;;;;;4989019;28;20193;-81
2022/06/15 12:29:51;;;;;;;2.85;1.10;;;26.90;71.30;;;;;;5002993;28;20188;-82
2022/06/15 12:32:33;;;;;;;3.45;1.00;;;27.00;74.60;;;;;;4994440;28;20179;-80
2022/06/15 12:35:07;;;;;;;3.33;0.90;;;27.20;75.40;;;;;;4995208;28;20184;-80
2022/06/15 12:37:43;;;;;;;3.35;1.00;;;27.40;74.10;;;;;;4995260;28;20175;-79
2022/06/15 12:40:30;;;;;;;2.70;1.10;;;27.50;74.70;;;;;;4974740;28;20191;-79
2022/06/15 12:43:29;;;;;;;6.57;1.02;;;27.40;73.10;;;;;;4975478;28;20176;-79
2022/06/15 12:46:16;;;;;;;2.78;1.15;;;27.50;69.60;;;;;;4974565;28;20192;-80
2022/06/15 12:49:19;;;;;;;4.70;0.90;;;27.70;71.60;;;;;;4974455;28;20666;-80
2022/06/15 12:51:51;;;;;;;4.55;1.00;;;27.80;72.90;;;;;;4974655;28;20196;-80
2022/06/15 12:54:34;;;;;;;2.88;1.13;;;28.00;73.70;;;;;;4989461;28;20179;-80
2022/06/15 12:57:25;;;;;;;3.47;1.30;;;28.00;72.30;;;;;;4991338;28;20367;-80
2022/06/15 13:00:04;;;;;;;2.55;1.10;;;28.20;71.40;;;;;;4993810;28;20179;-80
2022/06/15 13:03:11;;;;;;;1.95;1.10;;;28.30;71.70;;;;;;4993112;28;20183;-80
2022/06/15 13:05:38;;;;;;;2.63;0.90;;;28.40;70.50;;;;;;4952476;28;20224;-80
2022/06/15 13:08:21;;;;;;;3.15;1.17;;;28.30;69.70;;;;;;4974810;28;20306;-80
2022/06/15 13:10:53;;;;;;;2.63;1.00;;;28.20;68.90;;;;;;4975198;28;20195;-79
2022/06/15 13:13:38;;;;;;;3.15;0.93;;;28.30;71.40;;;;;;4975244;28;20188;-79
2022/06/15 13:16:15;;;;;;;3.60;1.10;;;28.30;70.50;;;;;;4973862;28;20193;-79
2022/06/15 13:18:53;;;;;;;3.83;0.90;;;28.40;72.40;;;;;;4976041;28;20191;-80
2022/06/15 13:21:21;;;;;;;2.88;0.93;;;28.40;70.20;;;;;;5003395;28;21738;-80
2022/06/15 13:24:07;;;;;;;3.08;1.48;;;28.30;69.20;;;;;;4982559;28;20199;-78
2022/06/15 13:26:42;;;;;;;1.67;0.88;;;28.40;71.70;;;;;;4993084;28;20183;-79
2022/06/15 13:29:11;;;;;;;3.28;1.40;;;28.30;68.50;;;;;;4992642;28;20590;-79
2022/06/15 13:31:53;;;;;;;1.63;0.90;;;28.40;66.30;;;;;;4992591;28;20274;-79